createdAt,value
2019-04-18T00:00:49.796Z,989.34
2019-04-18T00:01:49.747Z,989.35
2019-04-18T00:02:49.706Z,989.36
2019-04-18T00:03:51.569Z,989.35
2019-04-18T00:04:49.629Z,989.36
2019-04-18T00:05:49.595Z,989.34
2019-04-18T00:06:49.557Z,989.31
2019-04-18T00:07:49.520Z,989.35
2019-04-18T00:08:49.477Z,989.31
2019-04-18T00:09:49.444Z,989.29
2019-04-18T00:10:49.405Z,989.32
2019-04-18T00:11:50.559Z,989.30
2019-04-18T00:12:51.998Z,989.29
2019-04-18T00:13:49.286Z,989.29
2019-04-18T00:14:50.485Z,989.35
2019-04-18T00:15:49.925Z,989.31
2019-04-18T00:16:49.177Z,989.32
2019-04-18T00:17:49.140Z,989.34
2019-04-18T00:18:49.102Z,989.35
2019-04-18T00:19:49.071Z,989.31
2019-04-18T00:20:49.027Z,989.33
2019-04-18T00:21:49.259Z,989.32
2019-04-18T00:22:48.946Z,989.30
2019-04-18T00:23:48.913Z,989.32
2019-04-18T00:24:48.875Z,989.31
2019-04-18T00:25:48.830Z,989.36
2019-04-18T00:26:48.795Z,989.34
2019-04-18T00:27:49.435Z,989.35
2019-04-18T00:28:49.890Z,989.39
2019-04-18T00:29:48.685Z,989.39
2019-04-18T00:30:48.648Z,989.40
2019-04-18T00:31:48.610Z,989.36
2019-04-18T00:32:48.574Z,989.38
2019-04-18T00:33:50.931Z,989.40
2019-04-18T00:34:48.492Z,989.37
2019-04-18T00:35:48.456Z,989.36
2019-04-18T00:36:50.782Z,989.36
2019-04-18T00:37:48.382Z,989.39
2019-04-18T00:38:48.345Z,989.37
2019-04-18T00:39:48.304Z,989.38
2019-04-18T00:40:48.263Z,989.45
2019-04-18T00:41:49.677Z,989.39
2019-04-18T00:42:48.190Z,989.38
2019-04-18T00:43:48.152Z,989.37
2019-04-18T00:44:48.118Z,989.37
2019-04-18T00:45:48.072Z,989.35
2019-04-18T00:46:49.513Z,989.35
2019-04-18T00:47:50.859Z,989.36
2019-04-18T00:48:47.958Z,989.34
2019-04-18T00:49:47.928Z,989.37
2019-04-18T00:50:47.886Z,989.33
2019-04-18T00:51:47.849Z,989.35
2019-04-18T00:52:49.852Z,989.37
2019-04-18T00:53:51.047Z,989.35
2019-04-18T00:54:47.732Z,989.38
2019-04-18T00:55:47.698Z,989.38
2019-04-18T00:56:47.661Z,989.40
2019-04-18T00:57:47.658Z,989.37
2019-04-18T00:58:47.964Z,989.38
2019-04-18T00:59:47.544Z,989.39
2019-04-18T01:00:47.512Z,989.41
2019-04-18T01:01:47.470Z,989.40
2019-04-18T01:02:51.503Z,989.40
2019-04-18T01:03:47.394Z,989.41
2019-04-18T01:04:47.356Z,989.43
2019-04-18T01:05:47.317Z,989.40
2019-04-18T01:06:48.980Z,989.42
2019-04-18T01:07:47.237Z,989.44
2019-04-18T01:08:47.200Z,989.43
2019-04-18T01:09:47.265Z,989.43
2019-04-18T01:10:47.128Z,989.40
2019-04-18T01:11:47.084Z,989.42
2019-04-18T01:12:47.050Z,989.43
2019-04-18T01:13:47.012Z,989.42
2019-04-18T01:14:49.490Z,989.41
2019-04-18T01:15:46.939Z,989.40
2019-04-18T01:16:46.905Z,989.40
2019-04-18T01:17:46.901Z,989.37
2019-04-18T01:18:47.742Z,989.39
2019-04-18T01:19:46.780Z,989.40
2019-04-18T01:20:46.745Z,989.38
2019-04-18T01:21:46.708Z,989.41
2019-04-18T01:22:48.943Z,989.42
2019-04-18T01:23:46.634Z,989.38
2019-04-18T01:24:46.594Z,989.39
2019-04-18T01:25:46.554Z,989.42
2019-04-18T01:26:47.089Z,989.43
2019-04-18T01:27:46.497Z,989.41
2019-04-18T01:28:46.442Z,989.44
2019-04-18T01:29:46.401Z,989.44
2019-04-18T01:30:46.363Z,989.45
2019-04-18T01:31:46.327Z,989.42
2019-04-18T01:32:46.287Z,989.44
2019-04-18T01:33:46.251Z,989.41
2019-04-18T01:34:49.084Z,989.42
2019-04-18T01:35:46.177Z,989.43
2019-04-18T01:36:46.137Z,989.43
2019-04-18T01:37:46.096Z,989.43
2019-04-18T01:38:46.057Z,989.45
2019-04-18T01:39:47.739Z,989.46
2019-04-18T01:40:48.974Z,989.49
2019-04-18T01:41:45.951Z,989.53
2019-04-18T01:42:45.909Z,989.57
2019-04-18T01:43:45.867Z,989.54
2019-04-18T01:44:46.571Z,989.60
2019-04-18T01:45:47.952Z,989.57
2019-04-18T01:46:45.758Z,989.61
2019-04-18T01:47:45.723Z,989.63
2019-04-18T01:48:45.682Z,989.62
2019-04-18T01:49:45.640Z,989.69
2019-04-18T01:50:49.204Z,989.68
2019-04-18T01:51:45.562Z,989.68
2019-04-18T01:52:45.525Z,989.68
2019-04-18T01:53:45.488Z,989.66
2019-04-18T01:54:46.220Z,989.67
2019-04-18T01:55:47.996Z,989.71
2019-04-18T01:56:45.376Z,989.74
2019-04-18T01:57:45.337Z,989.73
2019-04-18T01:58:45.293Z,989.71
2019-04-18T01:59:45.262Z,989.74
2019-04-18T02:00:47.341Z,989.74
2019-04-18T02:01:45.185Z,989.73
2019-04-18T02:02:45.141Z,989.70
2019-04-18T02:03:45.104Z,989.72
2019-04-18T02:04:59.766Z,989.74
2019-04-18T02:05:45.030Z,989.75
2019-04-18T02:06:44.993Z,989.71
2019-04-18T02:07:45.727Z,989.71
2019-04-18T02:08:44.917Z,989.75
2019-04-18T02:09:44.879Z,989.76
2019-04-18T02:10:44.839Z,989.80
2019-04-18T02:11:44.806Z,989.78
2019-04-18T02:12:47.089Z,989.82
2019-04-18T02:13:44.724Z,989.82
2019-04-18T02:14:44.686Z,989.86
2019-04-18T02:15:44.662Z,989.82
2019-04-18T02:16:44.713Z,989.85
2019-04-18T02:17:49.035Z,989.87
2019-04-18T02:18:44.533Z,989.90
2019-04-18T02:19:44.497Z,989.89
2019-04-18T02:20:44.456Z,989.91
2019-04-18T02:21:44.415Z,989.94
2019-04-18T02:22:44.898Z,989.94
2019-04-18T02:23:44.338Z,989.91
2019-04-18T02:24:44.304Z,989.93
2019-04-18T02:25:44.263Z,989.90
2019-04-18T02:26:46.045Z,989.91
2019-04-18T02:27:44.189Z,989.90
2019-04-18T02:28:44.149Z,989.88
2019-04-18T02:29:44.108Z,989.85
2019-04-18T02:30:44.069Z,989.89
2019-04-18T02:31:44.037Z,989.81
2019-04-18T02:32:43.996Z,989.84
2019-04-18T02:33:45.670Z,989.83
2019-04-18T02:34:43.914Z,989.83
2019-04-18T02:35:43.878Z,989.84
2019-04-18T02:36:43.840Z,989.88
2019-04-18T02:37:45.396Z,989.84
2019-04-18T02:38:43.765Z,989.87
2019-04-18T02:39:43.761Z,989.88
2019-04-18T02:40:43.690Z,989.88
2019-04-18T02:41:44.052Z,989.84
2019-04-18T02:42:43.663Z,989.85
2019-04-18T02:43:43.568Z,989.88
2019-04-18T02:44:43.531Z,989.87
2019-04-18T02:45:43.495Z,989.87
2019-04-18T02:46:45.761Z,989.87
2019-04-18T02:47:43.414Z,989.90
2019-04-18T02:48:43.379Z,989.91
2019-04-18T02:49:43.340Z,989.97
2019-04-18T02:50:43.367Z,989.97
2019-04-18T02:51:43.266Z,989.97
2019-04-18T02:52:43.226Z,989.98
2019-04-18T02:53:43.185Z,990.03
2019-04-18T02:54:44.727Z,990.04
2019-04-18T02:55:43.107Z,990.02
2019-04-18T02:56:43.070Z,990.08
2019-04-18T02:57:43.030Z,990.09
2019-04-18T02:58:42.994Z,990.06
2019-04-18T02:59:49.048Z,990.11
2019-04-18T03:00:42.915Z,990.06
2019-04-18T03:01:42.873Z,990.04
2019-04-18T03:02:42.845Z,990.01
2019-04-18T03:03:44.532Z,990.02
2019-04-18T03:04:42.762Z,990.00
2019-04-18T03:05:42.720Z,989.98
2019-04-18T03:06:43.868Z,990.02
2019-04-18T03:07:42.639Z,989.96
2019-04-18T03:08:42.604Z,989.97
2019-04-18T03:09:42.565Z,989.93
2019-04-18T03:10:44.505Z,989.93
2019-04-18T03:11:42.489Z,989.93
2019-04-18T03:12:42.450Z,989.91
2019-04-18T03:13:42.408Z,989.93
2019-04-18T03:14:43.540Z,989.93
2019-04-18T03:15:42.327Z,989.97
2019-04-18T03:16:42.294Z,989.94
2019-04-18T03:17:42.253Z,989.95
2019-04-18T03:18:42.219Z,989.96
2019-04-18T03:19:46.425Z,989.98
2019-04-18T03:20:42.137Z,989.99
2019-04-18T03:21:42.097Z,989.98
2019-04-18T03:22:42.062Z,990.00
2019-04-18T03:23:42.022Z,989.99
2019-04-18T03:37:20.603Z,989.95
2019-04-18T03:38:20.533Z,989.91
2019-04-18T03:39:20.491Z,989.93
2019-04-18T03:40:20.890Z,989.87
2019-04-18T03:41:20.403Z,989.89
2019-04-18T03:42:20.360Z,989.90
2019-04-18T03:43:20.316Z,989.90
2019-04-18T03:44:20.279Z,989.89
2019-04-18T03:45:21.625Z,989.87
2019-04-18T03:46:20.195Z,989.86
2019-04-18T03:47:20.156Z,989.84
2019-04-18T03:48:20.111Z,989.84
2019-04-18T03:49:20.072Z,989.80
2019-04-18T03:50:20.037Z,989.79
2019-04-18T03:51:23.229Z,989.79
2019-04-18T03:52:19.949Z,989.77
2019-04-18T03:53:19.913Z,989.80
2019-04-18T03:54:19.875Z,989.81
2019-04-18T03:55:21.377Z,989.77
2019-04-18T03:56:19.797Z,989.76
2019-04-18T03:57:19.754Z,989.76
2019-04-18T03:58:19.714Z,989.76
2019-04-18T03:59:20.014Z,989.82
2019-04-18T04:00:21.259Z,989.78
2019-04-18T04:01:19.593Z,989.77
2019-04-18T04:02:19.554Z,989.77
2019-04-18T04:03:19.512Z,989.80
2019-04-18T04:04:22.326Z,989.75
2019-04-18T04:05:19.437Z,989.72
2019-04-18T04:06:20.844Z,989.78
2019-04-18T04:07:21.923Z,989.78
2019-04-18T04:08:19.319Z,989.79
2019-04-18T04:09:19.279Z,989.80
2019-04-18T04:10:19.238Z,989.80
2019-04-18T04:11:22.480Z,989.79
2019-04-18T04:12:19.158Z,989.78
2019-04-18T04:13:19.120Z,989.79
2019-04-18T04:14:19.079Z,989.83
2019-04-18T04:15:19.105Z,989.85
2019-04-18T04:16:22.993Z,989.84
2019-04-18T04:17:18.963Z,989.85
2019-04-18T04:18:18.929Z,989.85
2019-04-18T04:19:21.488Z,989.83
2019-04-18T04:20:18.840Z,989.81
2019-04-18T04:21:18.805Z,989.86
2019-04-18T04:22:18.766Z,989.83
2019-04-18T04:23:18.734Z,989.85
2019-04-18T04:24:18.684Z,989.85
2019-04-18T04:25:18.646Z,989.84
2019-04-18T04:26:18.606Z,989.84
2019-04-18T04:27:20.887Z,989.86
2019-04-18T04:28:18.531Z,989.88
2019-04-18T04:29:18.490Z,989.89
2019-04-18T04:30:18.450Z,989.88
2019-04-18T04:31:21.893Z,989.91
2019-04-18T04:32:18.369Z,989.94
2019-04-18T04:33:18.334Z,989.94
2019-04-18T04:34:18.291Z,989.94
2019-04-18T04:35:19.524Z,989.94
2019-04-18T04:36:24.041Z,989.99
2019-04-18T04:37:18.175Z,989.95
2019-04-18T04:38:19.752Z,989.98
2019-04-18T04:39:23.935Z,990.01
2019-04-18T04:40:18.059Z,990.01
2019-04-18T04:41:18.019Z,989.99
2019-04-18T04:42:20.590Z,990.03
2019-04-18T04:43:20.702Z,990.04
2019-04-18T04:44:17.904Z,990.01
2019-04-18T04:45:17.861Z,990.00
2019-04-18T04:46:17.825Z,990.03
2019-04-18T04:47:18.103Z,990.01
2019-04-18T04:48:19.324Z,990.03
2019-04-18T04:49:17.705Z,990.05
2019-04-18T04:50:17.664Z,990.02
2019-04-18T04:51:17.629Z,990.03
2019-04-18T04:52:18.083Z,990.00
2019-04-18T04:53:17.546Z,990.00
2019-04-18T04:54:18.926Z,990.01
2019-04-18T04:55:17.867Z,989.99
2019-04-18T04:56:17.425Z,989.96
2019-04-18T04:57:17.427Z,989.98
2019-04-18T04:58:17.347Z,989.98
2019-04-18T04:59:17.315Z,990.00
2019-04-18T05:00:20.753Z,989.99
2019-04-18T05:01:17.233Z,990.01
2019-04-18T05:02:17.245Z,990.00
2019-04-18T05:03:18.322Z,990.03
2019-04-18T05:04:20.795Z,990.06
2019-04-18T05:05:17.080Z,990.07
2019-04-18T05:06:17.082Z,990.08
2019-04-18T05:07:19.047Z,990.06
2019-04-18T05:08:16.958Z,990.05
2019-04-18T05:09:17.016Z,990.06
2019-04-18T05:10:16.908Z,990.08
2019-04-18T05:11:20.378Z,990.10
2019-04-18T05:12:16.801Z,990.08
2019-04-18T05:13:16.761Z,990.11
2019-04-18T05:14:17.188Z,990.16
2019-04-18T05:15:16.926Z,990.13
2019-04-18T05:16:16.642Z,990.14
2019-04-18T05:17:16.608Z,990.17
2019-04-18T05:18:16.561Z,990.16
2019-04-18T05:19:16.522Z,990.17
2019-04-18T05:20:16.488Z,990.16
2019-04-18T05:21:16.456Z,990.16
2019-04-18T05:22:16.407Z,990.17
2019-04-18T05:23:16.369Z,990.16
2019-04-18T05:24:16.324Z,990.18
2019-04-18T05:25:16.436Z,990.14
2019-04-18T05:26:16.255Z,990.19
2019-04-18T05:27:16.212Z,990.17
2019-04-18T05:28:16.169Z,990.19
2019-04-18T05:29:16.402Z,990.19
2019-04-18T05:30:16.090Z,990.23
2019-04-18T05:31:18.523Z,990.27
2019-04-18T05:32:16.018Z,990.26
2019-04-18T05:33:15.975Z,990.30
2019-04-18T05:34:17.930Z,990.23
2019-04-18T05:35:16.250Z,990.28
2019-04-18T05:36:16.318Z,990.29
2019-04-18T05:37:17.166Z,990.29
2019-04-18T05:38:18.297Z,990.33
2019-04-18T05:39:16.123Z,990.29
2019-04-18T05:40:15.702Z,990.35
2019-04-18T05:41:17.524Z,990.30
2019-04-18T05:42:18.735Z,990.36
2019-04-18T05:43:15.580Z,990.41
2019-04-18T05:44:15.546Z,990.35
2019-04-18T05:45:15.507Z,990.40
2019-04-18T05:46:19.457Z,990.34
2019-04-18T05:47:15.432Z,990.39
2019-04-18T05:48:15.385Z,990.44
2019-04-18T05:49:15.349Z,990.43
2019-04-18T05:50:15.318Z,990.41
2019-04-18T05:51:19.674Z,990.42
2019-04-18T05:52:15.337Z,990.40
2019-04-18T05:53:15.235Z,990.45
2019-04-18T05:54:15.156Z,990.44
2019-04-18T05:55:17.212Z,990.48
2019-04-18T05:56:15.074Z,990.51
2019-04-18T05:57:15.043Z,990.49
2019-04-18T05:58:15.189Z,990.52
2019-04-18T05:59:19.860Z,990.47
2019-04-18T06:00:14.920Z,990.52
2019-04-18T06:01:15.461Z,990.56
2019-04-18T06:02:17.682Z,990.55
2019-04-18T06:03:14.805Z,990.57
2019-04-18T06:04:15.273Z,990.60
2019-04-18T06:05:15.188Z,990.58
2019-04-18T06:06:16.083Z,990.61
2019-04-18T06:07:16.745Z,990.60
2019-04-18T06:08:15.089Z,990.61
2019-04-18T06:09:14.576Z,990.62
2019-04-18T06:10:18.221Z,990.61
2019-04-18T06:11:14.643Z,990.64
2019-04-18T06:12:14.706Z,990.63
2019-04-18T06:13:14.427Z,990.63
2019-04-18T06:14:14.388Z,990.68
2019-04-18T06:15:17.545Z,990.67
2019-04-18T06:16:14.313Z,990.68
2019-04-18T06:17:14.273Z,990.68
2019-04-18T06:18:14.235Z,990.70
2019-04-18T06:19:20.319Z,990.64
2019-04-18T06:20:14.258Z,990.66
2019-04-18T06:21:14.119Z,990.71
2019-04-18T06:22:15.987Z,990.70
2019-04-18T06:23:14.043Z,990.73
2019-04-18T06:24:14.152Z,990.75
2019-04-18T06:25:18.512Z,990.76
2019-04-18T06:26:13.933Z,990.80
2019-04-18T06:27:13.984Z,990.85
2019-04-18T06:28:16.030Z,990.87
2019-04-18T06:29:13.818Z,990.89
2019-04-18T06:30:13.782Z,990.90
2019-04-18T06:31:14.255Z,990.90
2019-04-18T06:32:13.703Z,990.90
2019-04-18T06:33:14.164Z,990.91
2019-04-18T06:34:13.731Z,990.92
2019-04-18T06:35:15.139Z,990.96
2019-04-18T06:36:13.888Z,990.96
2019-04-18T06:37:28.090Z,990.96
2019-04-18T06:38:17.363Z,990.94
2019-04-18T06:39:14.014Z,990.92
2019-04-18T06:40:13.409Z,990.92
2019-04-18T06:41:13.371Z,990.92
2019-04-18T06:42:16.190Z,990.89
2019-04-18T06:43:13.294Z,990.90
2019-04-18T06:44:13.548Z,990.90
2019-04-18T06:45:13.215Z,990.88
2019-04-18T06:46:17.708Z,990.86
2019-04-18T06:47:13.143Z,990.81
2019-04-18T06:48:13.102Z,990.84
2019-04-18T06:49:14.373Z,990.80
2019-04-18T06:50:13.028Z,990.79
2019-04-18T06:51:13.460Z,990.78
2019-04-18T06:52:12.957Z,990.78
2019-04-18T06:53:17.762Z,990.82
2019-04-18T06:54:13.353Z,990.86
2019-04-18T06:55:12.846Z,990.87
2019-04-18T06:56:16.946Z,990.85
2019-04-18T06:57:13.219Z,990.87
2019-04-18T06:58:12.728Z,990.89
2019-04-18T06:59:12.689Z,990.90
2019-04-18T07:00:13.050Z,990.92
2019-04-18T07:01:12.620Z,990.92
2019-04-18T07:02:14.061Z,990.91
2019-04-18T07:03:12.541Z,990.91
2019-04-18T07:04:12.508Z,990.92
2019-04-18T07:05:12.773Z,990.91
2019-04-18T07:06:12.936Z,990.92
2019-04-18T07:07:13.732Z,990.91
2019-04-18T07:08:12.366Z,990.92
2019-04-18T07:09:12.319Z,990.92
2019-04-18T07:10:14.869Z,990.89
2019-04-18T07:11:12.245Z,990.94
2019-04-18T07:12:13.672Z,990.93
2019-04-18T07:13:12.172Z,990.95
2019-04-18T07:14:12.441Z,990.96
2019-04-18T07:15:12.101Z,990.95
2019-04-18T07:16:13.257Z,990.97
2019-04-18T07:17:14.514Z,990.98
2019-04-18T07:18:11.994Z,991.04
2019-04-18T07:19:11.953Z,991.04
2019-04-18T07:20:16.577Z,991.05
2019-04-18T07:21:12.297Z,991.05
2019-04-18T07:22:12.166Z,991.07
2019-04-18T07:23:11.800Z,991.03
2019-04-18T07:24:11.774Z,991.03
2019-04-18T07:25:11.728Z,991.01
2019-04-18T07:26:11.693Z,991.03
2019-04-18T07:27:11.657Z,991.05
2019-04-18T07:28:11.615Z,991.05
2019-04-18T07:29:11.946Z,991.11
2019-04-18T07:30:11.650Z,991.08
2019-04-18T07:31:15.270Z,991.08
2019-04-18T07:32:12.035Z,991.08
2019-04-18T07:33:11.435Z,991.06
2019-04-18T07:34:12.078Z,991.09
2019-04-18T07:35:11.354Z,991.10
2019-04-18T07:36:11.324Z,991.11
2019-04-18T07:37:16.355Z,991.09
2019-04-18T07:38:11.251Z,991.11
2019-04-18T07:39:11.214Z,991.11
2019-04-18T07:40:12.558Z,991.13
2019-04-18T07:41:17.630Z,991.17
2019-04-18T07:42:11.100Z,991.14
2019-04-18T07:43:11.608Z,991.16
2019-04-18T07:44:11.035Z,991.25
2019-04-18T07:45:10.998Z,991.22
2019-04-18T07:46:10.956Z,991.23
2019-04-18T07:47:10.930Z,991.24
2019-04-18T07:48:10.879Z,991.22
2019-04-18T07:49:10.846Z,991.24
2019-04-18T07:50:10.810Z,991.24
2019-04-18T07:51:10.776Z,991.25
2019-04-18T07:52:10.948Z,991.25
2019-04-18T07:53:10.704Z,991.27
2019-04-18T07:54:10.696Z,991.29
2019-04-18T07:55:10.628Z,991.30
2019-04-18T07:56:10.592Z,991.37
2019-04-18T07:57:12.398Z,991.38
2019-04-18T07:58:10.519Z,991.35
2019-04-18T07:59:14.900Z,991.43
2019-04-18T08:00:10.898Z,991.36
2019-04-18T08:01:10.414Z,991.40
2019-04-18T08:02:10.372Z,991.41
2019-04-18T08:03:12.927Z,991.42
2019-04-18T08:04:14.314Z,991.43
2019-04-18T08:05:10.778Z,991.44
2019-04-18T08:06:16.856Z,991.47
2019-04-18T08:07:10.627Z,991.45
2019-04-18T08:08:10.160Z,991.49
2019-04-18T08:09:10.120Z,991.50
2019-04-18T08:10:20.191Z,991.46
2019-04-18T08:11:10.863Z,991.42
2019-04-18T08:12:10.006Z,991.43
2019-04-18T08:13:09.979Z,991.48
2019-04-18T08:14:09.934Z,991.47
2019-04-18T08:15:09.898Z,991.47
2019-04-18T08:16:10.227Z,991.44
2019-04-18T08:17:12.075Z,991.49
2019-04-18T08:18:09.845Z,991.46
2019-04-18T08:19:09.759Z,991.45
2019-04-18T08:20:09.846Z,991.46
2019-04-18T08:21:09.683Z,991.43
2019-04-18T08:22:09.662Z,991.45
2019-04-18T08:23:20.287Z,991.44
2019-04-18T08:24:10.293Z,991.44
2019-04-18T08:25:09.541Z,991.47
2019-04-18T08:26:09.502Z,991.48
2019-04-18T08:27:09.471Z,991.46
2019-04-18T08:28:12.709Z,991.45
2019-04-18T08:29:23.600Z,991.38
2019-04-18T08:30:09.362Z,991.34
2019-04-18T08:31:09.325Z,991.41
2019-04-18T08:32:13.761Z,991.37
2019-04-18T08:33:09.248Z,991.37
2019-04-18T08:34:09.628Z,991.34
2019-04-18T08:35:09.225Z,991.36
2019-04-18T08:36:09.452Z,991.34
2019-04-18T08:37:09.510Z,991.35
2019-04-18T08:38:09.071Z,991.38
2019-04-18T08:39:10.231Z,991.38
2019-04-18T08:40:09.001Z,991.34
2019-04-18T08:41:09.034Z,991.31
2019-04-18T08:42:09.156Z,991.34
2019-04-18T08:43:08.941Z,991.37
2019-04-18T08:44:09.051Z,991.38
2019-04-18T08:45:09.084Z,991.37
2019-04-18T08:46:09.834Z,991.34
2019-04-18T08:47:13.567Z,991.36
2019-04-18T08:48:08.802Z,991.37
2019-04-18T08:49:09.226Z,991.34
2019-04-18T08:50:08.895Z,991.32
2019-04-18T08:51:08.623Z,991.30
2019-04-18T08:52:08.577Z,991.26
2019-04-18T08:53:08.961Z,991.30
2019-04-18T08:54:09.428Z,991.27
2019-04-18T08:55:08.467Z,991.26
2019-04-18T08:56:09.290Z,991.29
2019-04-18T08:57:10.168Z,991.29
2019-04-18T08:58:08.463Z,991.25
2019-04-18T08:59:08.355Z,991.24
2019-04-18T09:00:09.429Z,991.25
2019-04-18T09:01:08.432Z,991.32
2019-04-18T09:02:08.563Z,991.35
2019-04-18T09:03:23.185Z,991.28
2019-04-18T09:04:08.145Z,991.28
2019-04-18T09:05:18.102Z,991.28
2019-04-18T09:06:08.727Z,991.22
2019-04-18T09:07:08.620Z,991.24
2019-04-18T09:08:12.949Z,991.22
2019-04-18T09:09:08.136Z,991.16
2019-04-18T09:10:09.714Z,991.18
2019-04-18T09:11:08.085Z,991.25
2019-04-18T09:12:08.612Z,991.20
2019-04-18T09:13:09.125Z,991.21
2019-04-18T09:14:12.920Z,991.18
2019-04-18T09:15:08.961Z,991.20
2019-04-18T09:16:08.155Z,991.17
2019-04-18T09:17:07.933Z,991.25
2019-04-18T09:18:12.600Z,991.22
2019-04-18T09:19:09.495Z,991.23
2019-04-18T09:20:14.158Z,991.19
2019-04-18T09:21:14.809Z,991.23
2019-04-18T09:22:07.658Z,991.18
2019-04-18T09:23:09.384Z,991.24
2019-04-18T09:24:08.270Z,991.26
2019-04-18T09:25:07.537Z,991.24
2019-04-18T09:26:07.523Z,991.21
2019-04-18T09:27:08.206Z,991.26
2019-04-18T09:28:07.309Z,991.16
2019-04-18T09:29:07.955Z,991.24
2019-04-18T09:30:08.388Z,991.22
2019-04-18T09:31:07.200Z,991.24
2019-04-18T09:32:08.475Z,991.23
2019-04-18T09:33:07.137Z,991.19
2019-04-18T09:34:07.251Z,991.29
2019-04-18T09:35:12.371Z,991.24
2019-04-18T09:36:07.654Z,991.30
2019-04-18T09:37:07.565Z,991.20
2019-04-18T09:51:24.821Z,991.29
2019-04-18T09:52:22.656Z,991.24
2019-04-18T09:53:22.605Z,991.15
2019-04-18T09:54:22.572Z,991.25
2019-04-18T09:55:22.530Z,991.22
2019-04-18T09:56:22.496Z,991.21
2019-04-18T09:57:22.453Z,991.24
2019-04-18T09:58:22.419Z,991.18
2019-04-18T09:59:22.915Z,991.18
2019-04-18T10:00:24.186Z,991.20
2019-04-18T10:01:22.308Z,991.18
2019-04-18T10:02:27.514Z,991.17
2019-04-18T10:03:22.233Z,991.18
2019-04-18T10:04:22.217Z,991.12
2019-04-18T10:05:27.129Z,991.17
2019-04-18T10:06:22.135Z,991.10
2019-04-18T10:07:22.093Z,991.21
2019-04-18T10:08:22.057Z,991.13
2019-04-18T10:09:22.032Z,991.13
2019-04-18T10:10:21.989Z,991.19
2019-04-18T10:11:21.955Z,991.21
2019-04-18T10:12:25.977Z,991.18
2019-04-18T10:13:21.896Z,991.19
2019-04-18T10:14:21.844Z,991.20
2019-04-18T10:15:26.337Z,991.25
2019-04-18T10:16:22.026Z,991.23
2019-04-18T10:17:21.743Z,991.20
2019-04-18T10:18:24.961Z,991.15
2019-04-18T10:19:21.673Z,991.12
2019-04-18T10:20:21.645Z,991.10
2019-04-18T10:21:23.206Z,991.13
2019-04-18T10:22:21.581Z,991.21
2019-04-18T10:23:23.270Z,991.18
2019-04-18T10:24:21.984Z,991.11
2019-04-18T10:25:21.466Z,991.11
2019-04-18T10:26:21.438Z,991.05
2019-04-18T10:27:21.459Z,991.09
2019-04-18T10:28:21.361Z,991.12
2019-04-18T10:29:21.325Z,991.09
2019-04-18T10:30:29.554Z,991.12
2019-04-18T10:31:21.462Z,991.08
2019-04-18T10:32:21.251Z,991.08
2019-04-18T10:33:21.192Z,991.07
2019-04-18T10:34:21.151Z,991.04
2019-04-18T10:35:21.470Z,990.99
2019-04-18T10:36:23.871Z,991.04
2019-04-18T10:37:21.048Z,991.01
2019-04-18T10:38:21.020Z,991.05
2019-04-18T10:39:24.081Z,991.06
2019-04-18T10:40:21.173Z,991.04
2019-04-18T10:41:20.913Z,991.01
2019-04-18T10:42:20.887Z,991.01
2019-04-18T10:43:21.199Z,990.99
2019-04-18T10:44:20.813Z,991.02
2019-04-18T10:45:20.837Z,990.99
2019-04-18T10:46:20.743Z,990.98
2019-04-18T10:47:20.707Z,990.99
2019-04-18T10:48:20.680Z,990.95
2019-04-18T10:49:21.090Z,990.97
2019-04-18T10:50:20.615Z,990.97
2019-04-18T10:51:21.033Z,990.98
2019-04-18T10:52:20.546Z,990.90
2019-04-18T10:53:20.507Z,990.87
2019-04-18T10:54:20.474Z,990.86
2019-04-18T10:55:26.255Z,990.83
2019-04-18T10:56:20.968Z,990.84
2019-04-18T10:57:20.375Z,990.81
2019-04-18T10:58:20.335Z,990.81
2019-04-18T10:59:20.550Z,990.78
2019-04-18T11:00:20.862Z,990.76
2019-04-18T11:01:20.243Z,990.75
2019-04-18T11:02:20.202Z,990.78
2019-04-18T11:03:20.453Z,990.81
2019-04-18T11:04:21.645Z,990.77
2019-04-18T11:05:20.737Z,990.77
2019-04-18T11:06:22.551Z,990.84
2019-04-18T11:07:20.031Z,990.83
2019-04-18T11:08:19.996Z,990.82
2019-04-18T11:09:19.965Z,990.80
2019-04-18T11:10:19.934Z,990.81
2019-04-18T11:11:19.930Z,990.77
2019-04-18T11:12:19.860Z,990.79
2019-04-18T11:13:19.823Z,990.71
2019-04-18T11:14:19.795Z,990.81
2019-04-18T11:15:19.762Z,990.85
2019-04-18T11:16:19.849Z,990.80
2019-04-18T11:17:21.223Z,990.76
2019-04-18T11:18:19.655Z,990.78
2019-04-18T11:19:19.624Z,990.80
2019-04-18T11:20:19.589Z,990.64
2019-04-18T11:21:19.560Z,990.72
2019-04-18T11:22:19.527Z,990.69
2019-04-18T11:23:19.492Z,990.66
2019-04-18T11:24:19.459Z,990.67
2019-04-18T11:25:19.428Z,990.66
2019-04-18T11:26:19.386Z,990.58
2019-04-18T11:27:19.353Z,990.61
2019-04-18T11:28:19.322Z,990.66
2019-04-18T11:29:19.291Z,990.63
2019-04-18T11:30:22.900Z,990.59
2019-04-18T11:31:19.219Z,990.58
2019-04-18T11:32:22.708Z,990.57
2019-04-18T11:33:19.150Z,990.59
2019-04-18T11:34:19.120Z,990.60
2019-04-18T11:35:19.086Z,990.63
2019-04-18T11:36:19.051Z,990.62
2019-04-18T11:37:19.017Z,990.57
2019-04-18T11:38:18.980Z,990.64
2019-04-18T11:39:22.296Z,990.63
2019-04-18T11:40:18.917Z,990.57
2019-04-18T11:41:18.877Z,990.60
2019-04-18T11:42:18.851Z,990.62
2019-04-18T11:43:18.815Z,990.55
2019-04-18T11:44:18.779Z,990.58
2019-04-18T11:45:18.744Z,990.59
2019-04-18T11:46:18.715Z,990.64
2019-04-18T11:47:18.681Z,990.57
2019-04-18T11:48:18.649Z,990.57
2019-04-18T11:49:18.620Z,990.52
2019-04-18T11:50:19.246Z,990.56
2019-04-18T11:51:18.544Z,990.52
2019-04-18T11:52:18.515Z,990.56
2019-04-18T11:53:18.753Z,990.50
2019-04-18T11:54:18.448Z,990.55
2019-04-18T11:55:18.412Z,990.57
2019-04-18T11:56:18.381Z,990.51
2019-04-18T11:57:18.348Z,990.57
2019-04-18T11:58:18.311Z,990.55
2019-04-18T11:59:18.281Z,990.46
2019-04-18T12:00:18.246Z,990.47
2019-04-18T12:01:24.883Z,990.48
2019-04-18T12:02:18.178Z,990.51
2019-04-18T12:03:18.146Z,990.50
2019-04-18T12:04:18.110Z,990.50
2019-04-18T12:05:21.888Z,990.46
2019-04-18T12:06:18.554Z,990.50
2019-04-18T12:07:18.012Z,990.48
2019-04-18T12:08:17.980Z,990.45
2019-04-18T12:09:17.947Z,990.40
2019-04-18T12:10:17.909Z,990.43
2019-04-18T12:11:17.877Z,990.48
2019-04-18T12:12:17.847Z,990.48
2019-04-18T12:13:17.811Z,990.46
2019-04-18T12:14:17.781Z,990.46
2019-04-18T12:15:17.747Z,990.49
2019-04-18T12:16:17.808Z,990.45
2019-04-18T12:17:18.215Z,990.45
2019-04-18T12:18:17.649Z,990.42
2019-04-18T12:19:17.613Z,990.42
2019-04-18T12:20:17.585Z,990.40
2019-04-18T12:21:17.549Z,990.41
2019-04-18T12:22:17.516Z,990.40
2019-04-18T12:23:17.478Z,990.43
2019-04-18T12:24:17.449Z,990.31
2019-04-18T12:25:17.721Z,990.32
2019-04-18T12:26:17.385Z,990.31
2019-04-18T12:27:17.350Z,990.36
2019-04-18T12:28:17.318Z,990.39
2019-04-18T12:29:17.283Z,990.34
2019-04-18T12:30:17.246Z,990.32
2019-04-18T12:31:30.159Z,990.30
2019-04-18T12:32:17.185Z,990.32
2019-04-18T12:33:17.389Z,990.36
2019-04-18T12:34:22.609Z,990.33
2019-04-18T12:35:17.083Z,990.35
2019-04-18T12:36:17.052Z,990.33
2019-04-18T12:37:17.015Z,990.41
2019-04-18T12:38:16.988Z,990.38
2019-04-18T12:39:16.953Z,990.40
2019-04-18T12:40:17.230Z,990.37
2019-04-18T12:41:16.890Z,990.36
2019-04-18T12:42:16.851Z,990.34
2019-04-18T12:43:16.821Z,990.34
2019-04-18T12:44:16.788Z,990.32
2019-04-18T12:45:20.518Z,990.28
2019-04-18T12:46:16.724Z,990.25
2019-04-18T12:47:16.694Z,990.29
2019-04-18T12:48:16.677Z,990.30
2019-04-18T12:49:16.628Z,990.30
2019-04-18T12:50:16.593Z,990.27
2019-04-18T12:51:16.565Z,990.37
2019-04-18T12:52:16.722Z,990.24
2019-04-18T12:53:16.494Z,990.28
2019-04-18T12:54:16.456Z,990.25